createdAt,value
2023-02-11T00:01:39.235Z,13.37
2023-02-11T00:04:08.433Z,7.87
2023-02-11T00:06:37.536Z,14.77
2023-02-11T00:09:06.930Z,17.07
2023-02-11T00:11:35.740Z,10.57
2023-02-11T00:14:07.992Z,11.10
2023-02-11T00:16:37.890Z,8.27
2023-02-11T00:19:07.457Z,17.97
2023-02-11T00:21:36.975Z,18.03
2023-02-11T00:24:06.045Z,16.13
2023-02-11T00:26:36.813Z,13.13
2023-02-11T00:29:06.477Z,8.13
2023-02-11T00:31:35.852Z,16.60
2023-02-11T00:34:08.381Z,11.70
2023-02-11T00:36:36.841Z,5.90
2023-02-11T00:39:05.992Z,7.23
2023-02-11T00:41:36.126Z,10.60
2023-02-11T00:44:04.999Z,7.70
2023-02-11T00:46:33.531Z,11.83
2023-02-11T00:49:02.315Z,9.93
2023-02-11T00:51:32.358Z,8.00
2023-02-11T00:54:01.045Z,18.57
2023-02-11T00:56:30.039Z,11.47
2023-02-11T00:58:58.804Z,7.60
2023-02-11T01:01:27.575Z,8.80
2023-02-11T01:03:56.260Z,7.87
2023-02-11T01:06:25.257Z,10.13
2023-02-11T01:08:55.090Z,9.87
2023-02-11T01:11:23.938Z,17.73
2023-02-11T01:13:52.640Z,11.20
2023-02-11T01:16:22.827Z,8.70
2023-02-11T01:18:51.386Z,8.73
2023-02-11T01:21:19.929Z,8.40
2023-02-11T01:23:48.413Z,12.33
2023-02-11T01:26:18.342Z,12.77
2023-02-11T01:28:46.978Z,19.33
2023-02-11T01:31:15.788Z,12.30
2023-02-11T01:33:44.518Z,11.37
2023-02-11T01:36:13.645Z,15.47
2023-02-11T01:38:43.676Z,10.10
2023-02-11T01:41:15.205Z,8.07
2023-02-11T01:43:48.909Z,15.20
2023-02-11T01:46:41.207Z,17.63
2023-02-11T01:49:15.800Z,11.50
2023-02-11T01:51:49.278Z,10.20
2023-02-11T01:54:40.839Z,8.40
2023-02-11T01:57:25.126Z,18.90
2023-02-11T02:00:11.314Z,17.57
2023-02-11T02:02:54.199Z,17.30
2023-02-11T02:05:33.365Z,10.20
2023-02-11T02:08:10.941Z,11.87
2023-02-11T02:10:45.254Z,14.47
2023-02-11T02:13:14.034Z,8.73
2023-02-11T02:15:50.124Z,20.73
2023-02-11T02:18:36.938Z,18.87
2023-02-11T02:21:58.072Z,13.73
2023-02-11T02:25:19.542Z,17.60
2023-02-11T02:27:57.918Z,13.20
2023-02-11T02:30:55.889Z,11.00
2023-02-11T02:33:47.026Z,13.03
2023-02-11T02:36:24.522Z,9.80
2023-02-11T02:38:59.009Z,14.43
2023-02-11T02:41:31.675Z,11.87
2023-02-11T02:44:02.288Z,15.20
2023-02-11T02:46:34.301Z,12.73
2023-02-11T02:49:04.522Z,12.00
2023-02-11T02:51:53.296Z,16.40
2023-02-11T02:54:48.811Z,13.73
2023-02-11T02:57:33.828Z,24.57
2023-02-11T03:00:24.862Z,16.27
2023-02-11T03:03:08.261Z,13.93
2023-02-11T03:05:51.235Z,12.67
2023-02-11T03:08:29.480Z,15.30
2023-02-11T03:11:00.233Z,11.73
2023-02-11T03:13:33.969Z,12.13
2023-02-11T03:16:09.453Z,15.43
2023-02-11T03:18:40.885Z,15.37
2023-02-11T03:21:12.422Z,18.10
2023-02-11T03:23:46.011Z,19.60
2023-02-11T03:26:21.052Z,21.27
2023-02-11T03:28:56.917Z,16.77
2023-02-11T03:31:32.199Z,26.97
2023-02-11T03:34:09.740Z,17.40
2023-02-11T03:36:47.266Z,16.27
2023-02-11T03:39:21.176Z,15.67
2023-02-11T03:41:51.130Z,23.73
2023-02-11T03:44:22.075Z,21.00
2023-02-11T03:46:53.612Z,17.80
2023-02-11T03:49:25.641Z,22.97
2023-02-11T03:51:57.612Z,18.80
2023-02-11T03:54:32.143Z,21.63
2023-02-11T03:57:03.343Z,26.10
2023-02-11T03:59:31.984Z,16.10
2023-02-11T04:02:00.500Z,20.97
2023-02-11T04:04:28.983Z,14.90
2023-02-11T04:06:58.724Z,21.03
2023-02-11T04:09:27.080Z,20.97
2023-02-11T04:11:55.408Z,18.67
2023-02-11T04:14:23.714Z,17.83
2023-02-11T04:16:51.999Z,29.33
2023-02-11T04:19:20.349Z,22.90
2023-02-11T04:21:49.036Z,16.57
2023-02-11T04:24:18.993Z,17.90
2023-02-11T04:26:47.401Z,22.30
2023-02-11T04:29:15.844Z,15.93
2023-02-11T04:31:44.267Z,22.83
2023-02-11T04:34:12.709Z,16.73
2023-02-11T04:36:41.113Z,20.30
2023-02-11T04:39:09.644Z,24.67
2023-02-11T04:41:39.417Z,25.30
2023-02-11T04:44:07.985Z,25.63
2023-02-11T04:46:36.323Z,26.10
2023-02-11T04:49:05.553Z,21.37
2023-02-11T04:51:34.039Z,16.23
2023-02-11T04:54:02.336Z,18.70
2023-02-11T04:56:31.201Z,20.33
2023-02-11T04:59:01.120Z,24.40
2023-02-11T05:01:29.783Z,16.60
2023-02-11T05:03:59.147Z,18.60
2023-02-11T05:06:27.762Z,17.90
2023-02-11T05:08:56.133Z,17.20
2023-02-11T05:11:26.663Z,21.87
2023-02-11T05:13:55.001Z,19.53
2023-02-11T05:16:24.874Z,30.77
2023-02-11T05:18:53.790Z,24.63
2023-02-11T05:21:22.250Z,21.53
2023-02-11T05:23:51.059Z,31.00
2023-02-11T05:26:19.773Z,24.77
2023-02-11T05:28:48.210Z,22.97
2023-02-11T05:31:16.947Z,23.70
2023-02-11T05:33:46.680Z,26.37
2023-02-11T05:36:15.965Z,24.87
2023-02-11T05:38:44.472Z,26.13
2023-02-11T05:41:13.302Z,31.30
2023-02-11T05:43:41.734Z,23.20
2023-02-11T05:46:10.152Z,27.87
2023-02-11T05:48:38.425Z,28.27
2023-02-11T05:51:08.209Z,27.70
2023-02-11T05:53:36.858Z,23.93
2023-02-11T05:56:05.831Z,23.50
2023-02-11T05:58:34.289Z,31.30
2023-02-11T06:01:02.664Z,29.17
2023-02-11T06:03:30.987Z,26.03
2023-02-11T06:05:59.491Z,30.07
2023-02-11T06:08:29.240Z,35.43
2023-02-11T06:10:57.683Z,22.87
2023-02-11T06:13:25.974Z,29.67
2023-02-11T06:15:58.614Z,30.33
2023-02-11T06:18:27.751Z,31.17
2023-02-11T06:20:56.924Z,27.40
2023-02-11T06:23:25.293Z,37.70
2023-02-11T06:25:55.015Z,34.80
2023-02-11T06:28:23.373Z,40.50
2023-02-11T06:30:51.861Z,29.17
2023-02-11T06:33:20.283Z,38.37
2023-02-11T06:35:48.769Z,32.50
2023-02-11T06:38:17.362Z,33.40
2023-02-11T06:40:49.503Z,29.10
2023-02-11T06:43:19.481Z,34.20
2023-02-11T06:45:55.258Z,32.80
2023-02-11T06:48:24.662Z,30.80
2023-02-11T06:50:53.483Z,38.77
2023-02-11T06:53:21.908Z,38.07
2023-02-11T06:55:50.703Z,36.87
2023-02-11T06:58:20.661Z,31.83
2023-02-11T07:00:49.066Z,33.30
2023-02-11T07:03:17.560Z,36.20
2023-02-11T07:05:46.067Z,40.97
2023-02-11T07:08:14.413Z,35.37
2023-02-11T07:10:42.999Z,45.70
2023-02-11T07:13:11.406Z,37.13
2023-02-11T07:15:41.171Z,50.07
2023-02-11T07:18:09.534Z,35.50
2023-02-11T07:20:39.722Z,42.60
2023-02-11T07:23:08.083Z,37.90
2023-02-11T07:25:37.677Z,47.10
2023-02-11T07:28:06.500Z,41.30
2023-02-11T07:30:34.857Z,48.50
2023-02-11T07:33:04.678Z,43.00
2023-02-11T07:35:33.206Z,48.63
2023-02-11T07:38:01.622Z,42.23
2023-02-11T07:40:31.601Z,43.17
2023-02-11T07:43:01.670Z,45.97
2023-02-11T07:45:30.170Z,46.83
2023-02-11T07:47:59.085Z,47.37
2023-02-11T07:50:28.789Z,51.30
2023-02-11T07:52:57.131Z,44.87
2023-02-11T07:55:25.455Z,51.00
2023-02-11T07:57:53.816Z,48.80
2023-02-11T08:00:22.403Z,40.23
2023-02-11T08:02:50.752Z,43.60
2023-02-11T08:05:19.346Z,46.90
2023-02-11T08:07:51.713Z,44.27
2023-02-11T08:10:20.438Z,51.10
2023-02-11T08:12:49.245Z,46.13
2023-02-11T08:15:17.745Z,49.40
2023-02-11T08:17:46.092Z,47.20
2023-02-11T08:20:14.705Z,50.57
2023-02-11T08:22:43.068Z,45.90
2023-02-11T08:25:12.818Z,49.40
2023-02-11T08:27:41.161Z,56.67
2023-02-11T08:30:11.396Z,44.50
2023-02-11T08:32:39.997Z,48.10
2023-02-11T08:35:09.657Z,46.30
2023-02-11T08:37:38.325Z,49.20
2023-02-11T08:40:07.872Z,54.00
2023-02-11T08:42:37.883Z,47.80
2023-02-11T08:45:07.444Z,56.70
2023-02-11T08:47:35.889Z,47.77
2023-02-11T08:50:04.499Z,43.97
2023-02-11T08:52:32.847Z,43.43
2023-02-11T08:55:01.398Z,48.93
2023-02-11T08:57:29.690Z,36.30
2023-02-11T08:59:59.506Z,42.90
2023-02-11T09:02:27.840Z,42.93
2023-02-11T09:04:56.288Z,54.77
2023-02-11T09:07:24.730Z,41.17
2023-02-11T09:09:53.266Z,41.97
2023-02-11T09:12:21.597Z,51.03
2023-02-11T09:14:50.298Z,46.77
2023-02-11T09:17:22.507Z,44.37
2023-02-11T09:19:51.176Z,42.47
2023-02-11T09:22:19.657Z,39.53
2023-02-11T09:24:48.091Z,48.93
2023-02-11T09:27:16.420Z,42.97
2023-02-11T09:29:44.797Z,56.20
2023-02-11T09:32:13.294Z,45.53
2023-02-11T09:34:43.244Z,44.07
2023-02-11T09:37:11.656Z,45.20
2023-02-11T09:39:40.070Z,41.03
2023-02-11T09:42:47.118Z,45.20
2023-02-11T09:45:21.910Z,38.27
2023-02-11T09:47:56.642Z,43.57
2023-02-11T09:50:33.735Z,37.00
2023-02-11T09:53:05.966Z,42.47
2023-02-11T09:55:39.624Z,45.83
2023-02-11T09:58:14.212Z,40.70
2023-02-11T10:00:48.624Z,38.30
2023-02-11T10:03:52.690Z,36.90
2023-02-11T10:06:42.037Z,38.30
2023-02-11T10:09:36.772Z,53.90
2023-02-11T10:12:26.887Z,39.30
2023-02-11T10:15:21.667Z,37.53
2023-02-11T10:18:08.672Z,40.20
2023-02-11T10:20:40.372Z,45.67
2023-02-11T10:23:17.918Z,34.70
2023-02-11T10:25:50.756Z,40.57
2023-02-11T10:28:22.008Z,41.60
2023-02-11T10:30:59.500Z,40.90
2023-02-11T10:33:32.613Z,36.13
2023-02-11T10:36:01.502Z,38.17
2023-02-11T10:38:33.043Z,43.53
2023-02-11T10:41:01.540Z,33.60
2023-02-11T10:43:33.011Z,34.87
2023-02-11T10:46:06.220Z,33.30
2023-02-11T10:48:41.588Z,32.77
2023-02-11T10:51:21.884Z,35.60
2023-02-11T10:54:14.476Z,37.10
2023-02-11T10:56:50.129Z,40.93
2023-02-11T10:59:28.669Z,32.70
2023-02-11T11:02:01.338Z,34.70
2023-02-11T11:04:45.481Z,36.80
2023-02-11T11:07:21.733Z,30.90
2023-02-11T11:09:55.051Z,33.57
2023-02-11T11:12:28.761Z,35.97
2023-02-11T11:14:59.962Z,27.20
2023-02-11T11:17:29.862Z,32.80
2023-02-11T11:20:35.488Z,39.67
2023-02-11T11:23:18.689Z,36.13
2023-02-11T11:26:05.033Z,31.97
2023-02-11T11:28:41.336Z,32.20
2023-02-11T11:31:19.199Z,31.53
2023-02-11T11:33:49.261Z,31.97
2023-02-11T11:36:22.639Z,34.23
2023-02-11T11:38:55.402Z,33.57
2023-02-11T11:41:31.183Z,28.40
2023-02-11T11:44:04.284Z,34.13
2023-02-11T11:46:36.756Z,32.37
2023-02-11T11:49:19.044Z,31.20
2023-02-11T11:51:58.537Z,32.13
2023-02-11T11:54:29.260Z,29.27
2023-02-11T11:57:12.608Z,30.10
2023-02-11T11:59:41.605Z,34.10
2023-02-11T12:02:46.650Z,34.07
2023-02-11T12:05:23.813Z,33.70
2023-02-11T12:08:09.714Z,30.43
2023-02-11T12:11:03.014Z,27.90
2023-02-11T12:13:50.427Z,34.30
2023-02-11T12:16:29.938Z,34.23
2023-02-11T12:19:31.715Z,36.37
2023-02-11T12:22:22.572Z,39.17
2023-02-11T12:25:22.132Z,31.03
2023-02-11T12:28:08.659Z,34.80
2023-02-11T12:30:57.672Z,28.87
2023-02-11T12:33:52.433Z,32.80
2023-02-11T12:36:38.322Z,31.10
2023-02-11T12:39:23.599Z,30.47
2023-02-11T12:42:52.129Z,30.50
2023-02-11T12:45:36.661Z,33.97
2023-02-11T12:48:26.991Z,30.90
2023-02-11T12:51:03.047Z,33.33
2023-02-11T12:53:53.812Z,33.00
2023-02-11T12:56:31.724Z,27.97
2023-02-11T12:59:03.099Z,34.17
2023-02-11T13:01:35.389Z,31.77
2023-02-11T13:04:13.472Z,29.30
2023-02-11T13:06:47.915Z,29.17
2023-02-11T13:09:21.385Z,29.63
2023-02-11T13:11:56.232Z,31.17
2023-02-11T13:14:31.519Z,31.30
2023-02-11T13:17:00.702Z,26.50
2023-02-11T13:19:38.155Z,29.23
2023-02-11T13:22:12.938Z,29.27
2023-02-11T13:24:48.015Z,31.73
2023-02-11T13:27:35.183Z,44.90
2023-02-11T13:30:30.198Z,30.90
2023-02-11T13:33:32.825Z,31.10
2023-02-11T13:36:26.790Z,33.80
2023-02-11T13:39:05.570Z,29.53
2023-02-11T13:41:41.605Z,25.20
2023-02-11T13:44:28.819Z,57.13
2023-02-11T13:47:02.423Z,32.53
2023-02-11T13:49:40.591Z,35.27
2023-02-11T13:52:26.983Z,54.43
2023-02-11T13:54:59.475Z,29.77
2023-02-11T13:57:40.410Z,27.37
2023-02-11T14:00:52.170Z,29.77
2023-02-11T14:03:51.756Z,27.03
2023-02-11T14:07:01.262Z,24.03
2023-02-11T14:09:40.982Z,23.87
2023-02-11T14:12:35.029Z,27.80
2023-02-11T14:15:28.690Z,19.73
2023-02-11T14:17:57.108Z,24.50
2023-02-11T14:20:44.098Z,25.37
2023-02-11T14:23:28.492Z,23.87
2023-02-11T14:26:14.476Z,24.83
2023-02-11T14:28:46.822Z,21.00
2023-02-11T14:31:21.051Z,25.07
2023-02-11T14:34:09.389Z,24.57
2023-02-11T14:37:04.991Z,23.53
2023-02-11T14:39:53.870Z,21.67
2023-02-11T14:42:27.399Z,24.67
2023-02-11T14:45:00.279Z,23.47
2023-02-11T14:47:44.087Z,29.80
2023-02-11T14:50:23.893Z,20.23
2023-02-11T14:52:53.180Z,21.87
2023-02-11T14:55:31.290Z,40.70
2023-02-11T14:58:17.933Z,22.97
2023-02-11T15:00:57.603Z,22.93
2023-02-11T15:03:36.625Z,22.20
2023-02-11T15:06:09.120Z,28.23
2023-02-11T15:08:43.292Z,35.37
2023-02-11T15:11:16.946Z,22.50
2023-02-11T15:13:49.669Z,21.93
2023-02-11T15:16:22.074Z,20.97
2023-02-11T15:18:55.171Z,18.40
2023-02-11T15:21:26.722Z,23.93
2023-02-11T15:24:02.149Z,39.77
2023-02-11T15:26:32.238Z,39.40
2023-02-11T15:29:02.153Z,107.23
2023-02-11T15:31:34.622Z,64.00
2023-02-11T15:34:09.904Z,26.30
2023-02-11T15:36:39.746Z,22.10
2023-02-11T15:39:34.328Z,22.73
2023-02-11T15:42:27.080Z,23.23
2023-02-11T15:45:26.064Z,27.90
2023-02-11T15:47:58.638Z,26.57
2023-02-11T15:50:29.853Z,28.03
2023-02-11T15:53:01.528Z,22.60
2023-02-11T15:55:31.309Z,24.50
2023-02-11T15:58:02.971Z,26.07
2023-02-11T16:00:38.005Z,26.17
2023-02-11T16:03:06.792Z,34.30
2023-02-11T16:05:38.354Z,21.27
2023-02-11T16:08:24.378Z,25.80
2023-02-11T16:10:58.913Z,21.50
2023-02-11T16:13:30.666Z,27.87
2023-02-11T16:16:04.704Z,28.53
2023-02-11T16:18:39.634Z,22.13
2023-02-11T16:21:16.984Z,21.83
2023-02-11T16:23:54.067Z,24.50
2023-02-11T16:26:28.257Z,28.07
2023-02-11T16:29:11.105Z,29.67
2023-02-11T16:31:43.707Z,31.40
2023-02-11T16:34:18.413Z,26.20
2023-02-11T16:36:47.875Z,34.93
2023-02-11T16:39:17.169Z,36.00
2023-02-11T16:41:46.137Z,24.90
2023-02-11T16:44:14.500Z,22.37
2023-02-11T16:46:44.959Z,32.47
2023-02-11T16:49:19.231Z,21.50
2023-02-11T16:51:50.770Z,29.33
2023-02-11T16:54:19.770Z,23.77
2023-02-11T16:56:48.162Z,17.20
2023-02-11T16:59:16.653Z,21.63
2023-02-11T17:01:47.648Z,26.80
2023-02-11T17:04:21.163Z,45.33
2023-02-11T17:06:49.689Z,44.83
2023-02-11T17:09:22.406Z,32.57
2023-02-11T17:11:51.996Z,29.10
2023-02-11T17:14:21.598Z,26.03
2023-02-11T17:16:51.310Z,23.33
2023-02-11T17:19:22.228Z,23.87
2023-02-11T17:21:53.098Z,28.10
2023-02-11T17:24:23.076Z,22.00
2023-02-11T17:26:51.936Z,23.10
2023-02-11T17:29:23.144Z,17.60
2023-02-11T17:31:54.199Z,20.63
2023-02-11T17:34:23.830Z,20.60
2023-02-11T17:36:52.760Z,22.47
2023-02-11T17:39:21.199Z,19.53
2023-02-11T17:41:49.841Z,24.77
2023-02-11T17:44:18.245Z,21.60
2023-02-11T17:46:46.837Z,26.47
2023-02-11T17:49:16.899Z,23.50
2023-02-11T17:51:45.291Z,21.70
2023-02-11T17:54:17.013Z,26.17
2023-02-11T17:56:48.359Z,24.97
2023-02-11T17:59:18.266Z,31.33
2023-02-11T18:01:46.883Z,21.70
2023-02-11T18:04:20.409Z,24.27
2023-02-11T18:06:50.310Z,39.23
2023-02-11T18:09:18.820Z,33.67
2023-02-11T18:11:48.504Z,30.50
2023-02-11T18:14:16.913Z,29.53
2023-02-11T18:16:46.005Z,30.00
2023-02-11T18:19:17.056Z,21.53
2023-02-11T18:21:48.864Z,18.93
2023-02-11T18:24:17.662Z,25.13
2023-02-11T18:26:45.983Z,23.73
2023-02-11T18:29:14.315Z,29.63
2023-02-11T18:31:42.682Z,24.63
2023-02-11T18:34:12.331Z,25.43
2023-02-11T18:36:42.209Z,20.97
2023-02-11T18:39:10.524Z,20.70
2023-02-11T18:41:40.736Z,23.00
2023-02-11T18:44:09.578Z,21.07
2023-02-11T18:46:38.009Z,16.07
2023-02-11T18:49:06.437Z,23.00
2023-02-11T18:51:34.900Z,16.10
2023-02-11T18:54:05.012Z,24.73
2023-02-11T18:56:33.459Z,20.40
2023-02-11T18:59:02.514Z,23.97
2023-02-11T19:01:34.227Z,26.50
2023-02-11T19:04:06.088Z,20.47
2023-02-11T19:06:37.364Z,19.17
2023-02-11T19:09:10.345Z,19.37
2023-02-11T19:11:50.459Z,25.70
2023-02-11T19:14:23.024Z,29.30
2023-02-11T19:16:53.935Z,26.90
2023-02-11T19:19:24.644Z,21.83
2023-02-11T19:21:53.122Z,22.27
2023-02-11T19:24:24.123Z,23.10
2023-02-11T19:26:54.639Z,23.33
2023-02-11T19:29:23.112Z,21.60
2023-02-11T19:31:51.715Z,17.70
2023-02-11T19:34:21.142Z,19.87
2023-02-11T19:36:50.509Z,18.27
2023-02-11T19:39:19.731Z,15.53
2023-02-11T19:41:49.630Z,15.30
2023-02-11T19:44:18.125Z,16.00
2023-02-11T19:46:48.458Z,15.27
2023-02-11T19:49:23.034Z,16.10
2023-02-11T19:51:52.382Z,16.50
2023-02-11T19:54:22.010Z,14.50
2023-02-11T19:56:51.717Z,14.03
2023-02-11T19:59:21.107Z,16.10
2023-02-11T20:01:49.957Z,12.90
2023-02-11T20:04:19.772Z,16.13
2023-02-11T20:06:49.516Z,17.27
2023-02-11T20:09:17.904Z,15.00
2023-02-11T20:11:46.352Z,19.57
2023-02-11T20:14:17.140Z,23.77
2023-02-11T20:16:49.627Z,25.30
2023-02-11T20:19:21.568Z,21.70
2023-02-11T20:21:53.316Z,26.17
2023-02-11T20:24:21.866Z,21.23
2023-02-11T20:26:55.409Z,20.93
2023-02-11T20:29:26.712Z,20.47
2023-02-11T20:31:55.855Z,20.90
2023-02-11T20:34:25.154Z,22.83
2023-02-11T20:36:54.125Z,21.03
2023-02-11T20:39:23.483Z,20.63
2023-02-11T20:41:53.683Z,22.17
2023-02-11T20:44:24.369Z,21.97
2023-02-11T20:46:54.577Z,21.50
2023-02-11T20:49:25.359Z,18.90
2023-02-11T20:51:54.453Z,21.23
2023-02-11T20:54:24.611Z,26.97
2023-02-11T20:56:54.032Z,17.73
2023-02-11T20:59:24.082Z,17.40
2023-02-11T21:01:55.350Z,22.27
2023-02-11T21:04:26.130Z,23.43
2023-02-11T21:06:57.696Z,24.10
2023-02-11T21:09:28.864Z,26.10
2023-02-11T21:11:57.448Z,17.10
2023-02-11T21:14:28.210Z,17.67
2023-02-11T21:16:56.730Z,15.13
2023-02-11T21:19:25.559Z,20.57
2023-02-11T21:21:55.200Z,22.13
2023-02-11T21:24:23.817Z,20.50
2023-02-11T21:26:52.198Z,20.83
2023-02-11T21:29:20.508Z,22.93
2023-02-11T21:31:51.448Z,25.90
2023-02-11T21:34:20.757Z,23.60
2023-02-11T21:36:51.427Z,20.90
2023-02-11T21:39:20.388Z,26.57
2023-02-11T21:41:48.954Z,24.23
2023-02-11T21:44:17.342Z,24.80
2023-02-11T21:46:46.594Z,23.10
2023-02-11T21:49:16.342Z,18.37
2023-02-11T21:51:44.790Z,18.30
2023-02-11T21:54:13.439Z,22.47
2023-02-11T21:56:41.959Z,19.13
2023-02-11T21:59:14.044Z,22.30
2023-02-11T22:01:42.564Z,21.23
2023-02-11T22:04:11.396Z,22.47
2023-02-11T22:06:41.309Z,24.00
2023-02-11T22:09:11.659Z,23.70
2023-02-11T22:11:40.446Z,23.67
2023-02-11T22:14:09.142Z,27.73
2023-02-11T22:16:37.701Z,21.93
2023-02-11T22:19:07.518Z,24.50
2023-02-11T22:21:35.947Z,22.93
2023-02-11T22:24:06.520Z,21.40
2023-02-11T22:26:34.875Z,23.20
2023-02-11T22:29:03.291Z,21.27
2023-02-11T22:31:34.322Z,23.50
2023-02-11T22:34:05.172Z,37.73
2023-02-11T22:36:36.059Z,22.60
2023-02-11T22:39:09.121Z,25.60
2023-02-11T22:41:38.362Z,23.37
2023-02-11T22:44:06.944Z,20.30
2023-02-11T22:46:35.545Z,20.53
2023-02-11T22:49:04.285Z,19.43
2023-02-11T22:51:32.956Z,21.37
2023-02-11T22:54:04.579Z,21.40
2023-02-11T22:56:36.252Z,20.33
2023-02-11T22:59:07.689Z,20.37
2023-02-11T23:01:36.722Z,17.63
2023-02-11T23:04:08.681Z,31.33
2023-02-11T23:06:37.078Z,28.70
2023-02-11T23:09:06.316Z,25.73
2023-02-11T23:11:36.658Z,20.07
2023-02-11T23:14:05.353Z,18.03
2023-02-11T23:16:35.422Z,16.77
2023-02-11T23:19:07.432Z,19.97
2023-02-11T23:21:39.334Z,15.77
2023-02-11T23:24:12.351Z,19.70
2023-02-11T23:26:43.822Z,16.80
2023-02-11T23:29:12.932Z,17.10
2023-02-11T23:31:46.014Z,21.20
2023-02-11T23:34:17.156Z,19.80
2023-02-11T23:36:45.607Z,20.77
2023-02-11T23:39:17.181Z,17.70
2023-02-11T23:41:47.715Z,18.03
2023-02-11T23:44:16.084Z,17.70
2023-02-11T23:46:44.546Z,20.77
2023-02-11T23:49:13.051Z,14.33
2023-02-11T23:51:41.369Z,17.80
2023-02-11T23:54:11.778Z,15.83
2023-02-11T23:56:40.334Z,19.23
2023-02-11T23:59:10.422Z,16.47
